Hovedside
METAR-TAF:

METAR-TAF

Lufthavner :

Kristiansand lufthavn. Kjevik

Kristiansand, Norge

breddegrad: 58-12N, lengdegrad: 008-05E, høyde over havet: 1 m

Gjeldene værobservasjon

Denne rapporten ble laget for 15 minutter siden, klokken 12:50 UTC
Vind 15 kt fra Øst-nordøst
Temperatur 3°C
Luftfuktighet 93%
Trykk 1032 hPa
Sikt 10 km eller mer
Få skyer i en høyde av 800 ft
Brutte skyer i en høyde av 1100 ft
lett regn

METAR: ENCN 211250Z 06015KT 9999 -RA FEW008 BKN011 03/02 Q1032

Tid: 14:05 (13:05 UTC)

Varsel

Denne rapporten ble laget for 2 timer og 5 minutter siden, klokken 11:00 UTC
Varsel gyldig fra 21. klokken 12 UTC til 21. klokken 21 UTC
Vind 12 kt fra Nordøst
Sikt 10 km eller mer
Spredte skyer i en høyde av 800 ft
Brutte skyer i en høyde av 1200 ft
lett regn
Midlertidig
fra 21. klokken 12 UTC til 21. klokken 21 UTC
Spredte skyer i en høyde av 1200 ft
Brutte skyer i en høyde av 1800 ft

TAF: ENCN 211100Z 2112/2121 05012KT 9999 -RA SCT008 BKN012 TEMPO 2112/2121 SCT012 BKN018

Værobservasjoner og værvarsel for over 4000 flyplasser (METAR- og TAF-rapporter).

Tilgjengelige stasjoner er representert av de røde og gule prikkene på kartet.

Hold musepekeren over prikken for å se navnet på stasjonen.

Klikk så for å se værobservasjoner og -varsler.

For å forandre kartet kan du klikke på den grønne knappen med svart kryss for å zoome inn, på den grønne knappen med strek for å zoome ut, eller på de grønne pilene for å se tilstøtende kart.


METAR-TAF: